createdAt,value
2022-10-18T00:00:58.432Z,62.14
2022-10-18T00:03:25.343Z,62.19
2022-10-18T00:05:52.550Z,62.39
2022-10-18T00:08:21.137Z,62.57
2022-10-18T00:10:48.650Z,63.51
2022-10-18T00:13:16.701Z,63.80
2022-10-18T00:15:49.419Z,64.31
2022-10-18T00:18:16.264Z,64.46
2022-10-18T00:20:42.964Z,64.29
2022-10-18T00:23:09.728Z,64.10
2022-10-18T00:25:38.337Z,64.33
2022-10-18T00:28:06.493Z,63.70
2022-10-18T00:30:33.418Z,63.43
2022-10-18T00:33:00.834Z,62.46
2022-10-18T00:35:27.764Z,61.47
2022-10-18T00:37:54.428Z,61.32
2022-10-18T00:40:21.637Z,61.83
2022-10-18T00:42:50.097Z,62.42
2022-10-18T00:45:20.835Z,63.24
2022-10-18T00:47:52.249Z,63.69
2022-10-18T00:50:21.448Z,64.26
2022-10-18T00:52:51.704Z,64.33
2022-10-18T00:55:19.066Z,63.92
2022-10-18T00:57:46.493Z,63.76
2022-10-18T01:00:15.184Z,64.14
2022-10-18T01:02:44.110Z,63.25
2022-10-18T01:05:12.241Z,62.59
2022-10-18T01:08:08.741Z,61.60
2022-10-18T01:10:42.801Z,61.87
2022-10-18T01:13:25.833Z,62.49
2022-10-18T01:16:00.556Z,63.27
2022-10-18T01:18:34.809Z,63.88
2022-10-18T01:21:18.066Z,64.04
2022-10-18T01:24:33.747Z,64.49
2022-10-18T01:27:36.549Z,64.48
2022-10-18T01:30:39.974Z,64.60
2022-10-18T01:33:15.534Z,64.78
2022-10-18T01:35:48.959Z,64.26
2022-10-18T01:38:18.909Z,63.77
2022-10-18T01:40:49.749Z,62.96
2022-10-18T01:43:18.575Z,62.44
2022-10-18T01:45:47.357Z,61.68
2022-10-18T01:48:14.665Z,61.25
2022-10-18T01:50:42.087Z,61.42
2022-10-18T01:53:22.210Z,61.52
2022-10-18T01:55:55.352Z,61.90
2022-10-18T01:58:29.553Z,62.04
2022-10-18T02:01:07.522Z,62.43
2022-10-18T02:03:37.919Z,63.12
2022-10-18T02:06:10.436Z,62.99
2022-10-18T02:08:42.884Z,62.40
2022-10-18T02:11:12.409Z,62.42
2022-10-18T02:13:41.995Z,62.78
2022-10-18T02:16:13.883Z,63.59
2022-10-18T02:18:44.481Z,64.05
2022-10-18T02:21:15.803Z,63.86
2022-10-18T02:23:46.133Z,64.36
2022-10-18T02:26:13.731Z,64.31
2022-10-18T02:28:41.038Z,63.93
2022-10-18T02:31:15.865Z,63.17
2022-10-18T02:33:47.050Z,63.43
2022-10-18T02:36:18.417Z,64.16
2022-10-18T02:38:46.544Z,64.63
2022-10-18T02:41:21.788Z,64.73
2022-10-18T02:43:48.491Z,64.98
2022-10-18T02:46:17.246Z,65.07
2022-10-18T02:48:44.000Z,64.84
2022-10-18T02:51:10.838Z,64.79
2022-10-18T02:53:37.512Z,64.20
2022-10-18T02:56:04.632Z,63.66
2022-10-18T02:58:31.328Z,62.61
2022-10-18T03:00:58.059Z,62.25
2022-10-18T03:03:26.238Z,62.20
2022-10-18T03:05:53.214Z,62.70
2022-10-18T03:08:20.011Z,63.54
2022-10-18T03:10:47.182Z,64.18
2022-10-18T03:13:14.180Z,64.58
2022-10-18T03:15:41.154Z,64.67
2022-10-18T03:18:07.899Z,64.61
2022-10-18T03:20:36.158Z,64.81
2022-10-18T03:23:03.418Z,64.55
2022-10-18T03:25:30.038Z,64.08
2022-10-18T03:27:56.744Z,64.01
2022-10-18T03:30:23.489Z,64.36
2022-10-18T03:32:50.635Z,64.52
2022-10-18T03:35:17.478Z,64.46
2022-10-18T03:37:45.794Z,64.29
2022-10-18T03:40:12.553Z,64.22
2022-10-18T03:42:39.224Z,64.50
2022-10-18T03:45:07.196Z,64.29
2022-10-18T03:47:34.047Z,64.16
2022-10-18T03:50:00.781Z,63.76
2022-10-18T03:52:27.496Z,62.88
2022-10-18T03:54:55.586Z,62.65
2022-10-18T03:57:22.287Z,62.98
2022-10-18T03:59:49.041Z,62.94
2022-10-18T04:02:15.944Z,63.00
2022-10-18T04:04:42.806Z,62.73
2022-10-18T04:07:09.749Z,62.90
2022-10-18T04:09:36.528Z,62.80
2022-10-18T04:12:05.220Z,62.54
2022-10-18T04:14:31.932Z,62.23
2022-10-18T04:16:58.641Z,62.18
2022-10-18T04:19:25.259Z,62.49
2022-10-18T04:21:52.012Z,62.72
2022-10-18T04:24:18.803Z,62.69
2022-10-18T04:26:45.677Z,62.62
2022-10-18T04:29:13.766Z,62.48
2022-10-18T04:31:40.531Z,63.41
2022-10-18T04:34:07.323Z,63.35
2022-10-18T04:36:34.027Z,63.69
2022-10-18T04:39:00.983Z,63.82
2022-10-18T04:41:27.719Z,64.12
2022-10-18T04:43:54.513Z,64.76
2022-10-18T04:46:22.624Z,64.88
2022-10-18T04:48:49.944Z,65.26
2022-10-18T04:51:16.671Z,65.25
2022-10-18T04:53:43.616Z,65.43
2022-10-18T04:56:10.335Z,65.25
2022-10-18T04:58:37.085Z,65.42
2022-10-18T05:01:05.211Z,65.01
2022-10-18T05:03:33.560Z,64.73
2022-10-18T05:06:03.720Z,64.90
2022-10-18T05:08:32.138Z,64.58
2022-10-18T05:10:59.357Z,65.28
2022-10-18T05:13:26.300Z,65.19
2022-10-18T05:15:53.033Z,64.71
2022-10-18T05:18:20.228Z,64.88
2022-10-18T05:20:48.423Z,65.20
2022-10-18T05:23:16.858Z,65.06
2022-10-18T05:25:56.744Z,65.07
2022-10-18T05:28:41.100Z,64.67
2022-10-18T05:31:11.757Z,64.96
2022-10-18T05:39:20.927Z,64.89
2022-10-18T05:41:56.385Z,64.57
2022-10-18T05:52:31.042Z,64.31
2022-10-18T05:57:42.801Z,64.21
2022-10-18T06:00:12.812Z,64.34
2022-10-18T06:02:40.769Z,64.27
2022-10-18T06:05:08.460Z,63.81
2022-10-18T06:13:02.295Z,63.58
2022-10-18T06:18:11.626Z,63.55
2022-10-18T06:49:18.306Z,63.35
2022-10-18T06:52:07.738Z,63.15
2022-10-18T07:30:08.988Z,60.89
2022-10-18T07:32:36.194Z,61.01
2022-10-18T07:37:44.614Z,60.57
2022-10-18T07:43:05.016Z,59.75
2022-10-18T07:45:34.299Z,59.69
2022-10-18T08:22:38.867Z,55.57
2022-10-18T08:25:07.144Z,54.68
2022-10-18T08:30:58.530Z,52.52
2022-10-18T08:39:05.450Z,52.44
2022-10-18T09:37:18.760Z,46.32
2022-10-18T11:11:19.356Z,40.92
2022-10-18T11:48:27.008Z,41.25
2022-10-18T11:53:52.429Z,41.84
2022-10-18T11:56:37.653Z,41.64
2022-10-18T11:59:19.352Z,41.74
2022-10-18T12:02:22.219Z,41.43
2022-10-18T12:05:22.027Z,41.85
2022-10-18T12:07:52.224Z,41.71
2022-10-18T12:10:31.573Z,42.56
2022-10-18T12:13:20.864Z,42.89
2022-10-18T12:15:52.369Z,43.02
2022-10-18T12:21:08.225Z,43.75
2022-10-18T12:33:27.773Z,44.05
2022-10-18T12:36:16.823Z,44.13
2022-10-18T12:38:55.609Z,43.98
2022-10-18T12:41:35.457Z,44.42
2022-10-18T12:46:50.355Z,44.86
2022-10-18T12:52:28.262Z,44.37
2022-10-18T12:55:06.535Z,43.93
2022-10-18T12:58:04.188Z,44.16
2022-10-18T13:00:53.062Z,44.55
2022-10-18T13:06:06.801Z,44.88
2022-10-18T13:08:50.957Z,44.62
2022-10-18T13:14:59.191Z,44.45
2022-10-18T13:17:40.041Z,44.46
2022-10-18T13:20:27.237Z,45.06
2022-10-18T13:23:12.136Z,44.85
2022-10-18T13:26:02.727Z,44.57
2022-10-18T13:46:21.955Z,44.40
2022-10-18T13:48:53.026Z,44.59
2022-10-18T13:55:08.991Z,44.85
2022-10-18T13:57:52.472Z,44.79
2022-10-18T14:00:37.006Z,44.84
2022-10-18T14:03:56.969Z,45.11
2022-10-18T14:06:28.400Z,45.84
2022-10-18T14:09:09.384Z,45.66
2022-10-18T14:11:50.729Z,45.70
2022-10-18T14:14:28.075Z,45.82
2022-10-18T16:13:59.565Z,51.79
2022-10-18T16:16:29.254Z,52.27
2022-10-18T16:18:57.102Z,52.74
2022-10-18T16:21:27.974Z,53.24
2022-10-18T16:23:55.145Z,53.32
2022-10-18T16:26:27.218Z,53.84
2022-10-18T16:28:57.634Z,53.93
2022-10-18T16:31:28.268Z,54.11
2022-10-18T18:57:06.897Z,58.02
2022-10-18T19:02:26.683Z,58.12
2022-10-18T19:04:53.748Z,57.93
2022-10-18T19:07:25.397Z,58.04
2022-10-18T19:09:52.470Z,57.92
2022-10-18T19:12:21.375Z,58.14
2022-10-18T19:14:48.418Z,58.23
2022-10-18T19:17:15.577Z,58.20
2022-10-18T19:19:43.339Z,58.22
2022-10-18T19:22:11.120Z,58.40
2022-10-18T19:24:41.216Z,58.22
2022-10-18T19:27:12.677Z,58.24
2022-10-18T19:29:40.908Z,58.21
2022-10-18T19:37:41.402Z,58.62
2022-10-18T19:40:10.515Z,58.97
2022-10-18T19:42:37.784Z,58.83
2022-10-18T19:45:05.778Z,59.08
2022-10-18T19:47:33.280Z,58.92
2022-10-18T19:50:00.294Z,58.88
2022-10-18T19:52:28.362Z,59.22
2022-10-18T19:54:55.254Z,59.09
2022-10-18T19:57:23.913Z,59.09
2022-10-18T19:59:50.799Z,59.24
2022-10-18T20:02:17.663Z,59.27
2022-10-18T20:04:44.593Z,59.26
2022-10-18T20:07:12.345Z,59.54
2022-10-18T20:09:40.035Z,59.83
2022-10-18T20:12:07.022Z,59.87
2022-10-18T20:14:35.367Z,60.00
2022-10-18T20:17:02.195Z,59.99
2022-10-18T20:19:28.911Z,60.02
2022-10-18T20:21:56.394Z,60.32
2022-10-18T20:24:23.155Z,60.19
2022-10-18T20:26:50.080Z,60.52
2022-10-18T20:29:17.168Z,60.91
2022-10-18T20:31:47.987Z,61.14
2022-10-18T20:34:14.791Z,61.24
2022-10-18T20:36:41.695Z,61.40
2022-10-18T20:39:09.113Z,61.60
2022-10-18T20:41:38.012Z,61.71
2022-10-18T20:44:11.044Z,61.84
2022-10-18T20:46:38.746Z,61.78
2022-10-18T20:49:08.710Z,61.58
2022-10-18T20:51:35.894Z,61.93
2022-10-18T20:56:34.286Z,62.05
2022-10-18T20:59:01.440Z,62.03
2022-10-18T21:01:30.684Z,62.07
2022-10-18T21:03:59.777Z,62.55
2022-10-18T21:06:29.802Z,62.50
2022-10-18T21:08:58.069Z,62.21
2022-10-18T21:11:25.938Z,62.02
2022-10-18T21:13:54.396Z,62.01
2022-10-18T21:16:21.944Z,61.81
2022-10-18T21:18:49.176Z,61.46
2022-10-18T21:21:17.981Z,61.25
2022-10-18T21:23:46.654Z,61.42
2022-10-18T21:26:15.683Z,61.15
2022-10-18T21:28:42.506Z,61.06
